sensor_id;sensor_type;location;lat;lon;timestamp;temperature;humidity
43414;DHT22;29013;49.676;8.606;2023-02-01T00:02:28;6.8;99.9
43414;DHT22;29013;49.676;8.606;2023-02-01T00:07:52;6.7;99.9
43414;DHT22;29013;49.676;8.606;2023-02-01T00:13:17;6.8;99.9
43414;DHT22;29013;49.676;8.606;2023-02-01T00:18:42;6.8;99.9
43414;DHT22;29013;49.676;8.606;2023-02-01T00:24:02;6.9;99.9
43414;DHT22;29013;49.676;8.606;2023-02-01T00:29:27;7.0;99.9
43414;DHT22;29013;49.676;8.606;2023-02-01T00:34:50;7.2;99.9
43414;DHT22;29013;49.676;8.606;2023-02-01T00:40:15;7.3;99.9
43414;DHT22;29013;49.676;8.606;2023-02-01T00:45:33;7.4;99.9
43414;DHT22;29013;49.676;8.606;2023-02-01T00:51:00;7.4;99.9
43414;DHT22;29013;49.676;8.606;2023-02-01T00:56:20;7.2;99.9
43414;DHT22;29013;49.676;8.606;2023-02-01T01:02:27;7.0;99.9
43414;DHT22;29013;49.676;8.606;2023-02-01T01:07:53;7.2;99.9
43414;DHT22;29013;49.676;8.606;2023-02-01T01:13:17;7.1;99.9
43414;DHT22;29013;49.676;8.606;2023-02-01T01:18:40;7.1;99.9
43414;DHT22;29013;49.676;8.606;2023-02-01T01:24:05;7.0;99.9
43414;DHT22;29013;49.676;8.606;2023-02-01T01:29:29;7.0;99.9
43414;DHT22;29013;49.676;8.606;2023-02-01T01:34:53;7.2;99.9
43414;DHT22;29013;49.676;8.606;2023-02-01T01:40:17;7.3;99.9
43414;DHT22;29013;49.676;8.606;2023-02-01T01:45:39;7.3;99.9
43414;DHT22;29013;49.676;8.606;2023-02-01T01:51:05;7.4;99.9
43414;DHT22;29013;49.676;8.606;2023-02-01T01:56:26;7.5;99.9
43414;DHT22;29013;49.676;8.606;2023-02-01T02:02:17;7.2;99.9
43414;DHT22;29013;49.676;8.606;2023-02-01T02:07:39;7.2;99.9
43414;DHT22;29013;49.676;8.606;2023-02-01T02:13:00;7.1;99.9
43414;DHT22;29013;49.676;8.606;2023-02-01T02:18:46;7.0;99.9
43414;DHT22;29013;49.676;8.606;2023-02-01T02:24:26;7.1;99.9
43414;DHT22;29013;49.676;8.606;2023-02-01T02:30:19;7.0;99.9
43414;DHT22;29013;49.676;8.606;2023-02-01T02:35:41;7.2;99.9
43414;DHT22;29013;49.676;8.606;2023-02-01T02:41:09;7.3;99.9
43414;DHT22;29013;49.676;8.606;2023-02-01T02:46:28;7.3;99.9
43414;DHT22;29013;49.676;8.606;2023-02-01T02:51:52;7.3;99.9
43414;DHT22;29013;49.676;8.606;2023-02-01T02:57:14;7.3;99.9
43414;DHT22;29013;49.676;8.606;2023-02-01T03:02:37;7.3;99.9
43414;DHT22;29013;49.676;8.606;2023-02-01T03:08:02;7.1;99.9
43414;DHT22;29013;49.676;8.606;2023-02-01T03:13:30;6.9;99.9
43414;DHT22;29013;49.676;8.606;2023-02-01T03:18:50;7.0;99.9
43414;DHT22;29013;49.676;8.606;2023-02-01T03:24:14;7.0;99.9
43414;DHT22;29013;49.676;8.606;2023-02-01T03:29:39;6.8;99.9
43414;DHT22;29013;49.676;8.606;2023-02-01T03:35:01;6.9;99.9
43414;DHT22;29013;49.676;8.606;2023-02-01T03:40:19;7.1;99.9
43414;DHT22;29013;49.676;8.606;2023-02-01T03:45:41;7.3;99.9
43414;DHT22;29013;49.676;8.606;2023-02-01T03:51:03;7.3;99.9
43414;DHT22;29013;49.676;8.606;2023-02-01T03:56:25;7.4;99.9
43414;DHT22;29013;49.676;8.606;2023-02-01T04:01:45;7.3;99.9
43414;DHT22;29013;49.676;8.606;2023-02-01T04:07:06;7.2;99.9
43414;DHT22;29013;49.676;8.606;2023-02-01T04:12:31;7.1;99.9
43414;DHT22;29013;49.676;8.606;2023-02-01T04:17:54;7.0;99.9
43414;DHT22;29013;49.676;8.606;2023-02-01T04:23:14;6.9;99.9
43414;DHT22;29013;49.676;8.606;2023-02-01T04:28:39;6.8;99.9
43414;DHT22;29013;49.676;8.606;2023-02-01T04:34:00;6.7;99.9
43414;DHT22;29013;49.676;8.606;2023-02-01T04:39:23;6.7;99.9
43414;DHT22;29013;49.676;8.606;2023-02-01T04:44:45;6.6;99.9
43414;DHT22;29013;49.676;8.606;2023-02-01T04:50:12;6.5;99.9
43414;DHT22;29013;49.676;8.606;2023-02-01T04:55:34;6.5;99.9
43414;DHT22;29013;49.676;8.606;2023-02-01T05:00:56;6.5;99.9
43414;DHT22;29013;49.676;8.606;2023-02-01T05:06:21;6.6;99.9
43414;DHT22;29013;49.676;8.606;2023-02-01T05:11:46;6.7;99.9
43414;DHT22;29013;49.676;8.606;2023-02-01T05:17:33;6.6;99.9
43414;DHT22;29013;49.676;8.606;2023-02-01T05:22:53;7.0;99.9
43414;DHT22;29013;49.676;8.606;2023-02-01T05:28:13;7.0;99.9
43414;DHT22;29013;49.676;8.606;2023-02-01T05:33:35;7.0;99.9
43414;DHT22;29013;49.676;8.606;2023-02-01T05:39:12;7.0;99.9
43414;DHT22;29013;49.676;8.606;2023-02-01T05:44:33;7.2;99.9
43414;DHT22;29013;49.676;8.606;2023-02-01T05:49:57;7.1;99.9
43414;DHT22;29013;49.676;8.606;2023-02-01T05:55:23;7.1;99.9
43414;DHT22;29013;49.676;8.606;2023-02-01T06:00:49;7.0;99.9
43414;DHT22;29013;49.676;8.606;2023-02-01T06:06:12;6.8;99.9
43414;DHT22;29013;49.676;8.606;2023-02-01T06:11:31;6.7;99.9
43414;DHT22;29013;49.676;8.606;2023-02-01T06:17:18;6.6;99.9
43414;DHT22;29013;49.676;8.606;2023-02-01T06:22:39;6.8;99.9
43414;DHT22;29013;49.676;8.606;2023-02-01T06:28:04;6.5;99.9
43414;DHT22;29013;49.676;8.606;2023-02-01T06:33:26;6.6;99.9
43414;DHT22;29013;49.676;8.606;2023-02-01T06:38:47;6.6;99.9
43414;DHT22;29013;49.676;8.606;2023-02-01T06:44:10;6.6;99.9
43414;DHT22;29013;49.676;8.606;2023-02-01T06:49:30;6.8;99.9
43414;DHT22;29013;49.676;8.606;2023-02-01T06:54:53;6.9;99.9
43414;DHT22;29013;49.676;8.606;2023-02-01T07:00:21;7.0;99.9
43414;DHT22;29013;49.676;8.606;2023-02-01T07:05:43;7.1;99.9
43414;DHT22;29013;49.676;8.606;2023-02-01T07:11:07;7.1;99.9
43414;DHT22;29013;49.676;8.606;2023-02-01T07:16:29;6.9;99.9
43414;DHT22;29013;49.676;8.606;2023-02-01T07:21:53;6.8;99.9
43414;DHT22;29013;49.676;8.606;2023-02-01T07:27:18;6.6;99.9
43414;DHT22;29013;49.676;8.606;2023-02-01T07:32:42;6.3;99.9
43414;DHT22;29013;49.676;8.606;2023-02-01T07:38:04;6.1;99.9
43414;DHT22;29013;49.676;8.606;2023-02-01T07:43:26;6.0;99.9
43414;DHT22;29013;49.676;8.606;2023-02-01T07:48:52;5.8;99.9
43414;DHT22;29013;49.676;8.606;2023-02-01T07:54:16;5.7;99.9
43414;DHT22;29013;49.676;8.606;2023-02-01T07:59:44;5.6;99.9
43414;DHT22;29013;49.676;8.606;2023-02-01T08:05:07;5.6;99.9
43414;DHT22;29013;49.676;8.606;2023-02-01T08:10:29;5.7;99.9
43414;DHT22;29013;49.676;8.606;2023-02-01T08:15:58;5.9;99.9
43414;DHT22;29013;49.676;8.606;2023-02-01T08:21:21;6.1;99.9
43414;DHT22;29013;49.676;8.606;2023-02-01T08:26:39;6.2;99.9
43414;DHT22;29013;49.676;8.606;2023-02-01T08:32:02;6.3;99.9
43414;DHT22;29013;49.676;8.606;2023-02-01T08:37:23;6.3;99.9
43414;DHT22;29013;49.676;8.606;2023-02-01T08:42:42;6.3;99.9
43414;DHT22;29013;49.676;8.606;2023-02-01T08:48:05;6.4;99.9
43414;DHT22;29013;49.676;8.606;2023-02-01T08:53:29;6.5;99.9
43414;DHT22;29013;49.676;8.606;2023-02-01T08:58:54;6.7;99.9
43414;DHT22;29013;49.676;8.606;2023-02-01T09:04:19;6.9;99.9
43414;DHT22;29013;49.676;8.606;2023-02-01T09:09:42;7.1;99.9
43414;DHT22;29013;49.676;8.606;2023-02-01T09:15:10;7.2;99.9
43414;DHT22;29013;49.676;8.606;2023-02-01T09:20:30;7.3;99.9
43414;DHT22;29013;49.676;8.606;2023-02-01T09:25:58;7.3;99.9
43414;DHT22;29013;49.676;8.606;2023-02-01T09:31:13;7.4;99.9
43414;DHT22;29013;49.676;8.606;2023-02-01T09:36:36;7.3;99.9
43414;DHT22;29013;49.676;8.606;2023-02-01T09:42:02;7.2;99.9
43414;DHT22;29013;49.676;8.606;2023-02-01T09:47:25;7.2;99.9
43414;DHT22;29013;49.676;8.606;2023-02-01T09:52:51;7.3;99.9
43414;DHT22;29013;49.676;8.606;2023-02-01T09:58:14;7.4;99.9
43414;DHT22;29013;49.676;8.606;2023-02-01T10:03:34;7.4;99.9
43414;DHT22;29013;49.676;8.606;2023-02-01T10:14:46;7.6;99.9
43414;DHT22;29013;49.676;8.606;2023-02-01T10:20:14;7.6;99.9
43414;DHT22;29013;49.676;8.606;2023-02-01T10:25:34;7.6;99.9
43414;DHT22;29013;49.676;8.606;2023-02-01T10:30:57;7.7;99.9
43414;DHT22;29013;49.676;8.606;2023-02-01T10:36:22;7.5;99.9
43414;DHT22;29013;49.676;8.606;2023-02-01T10:41:42;7.6;99.9
43414;DHT22;29013;49.676;8.606;2023-02-01T10:47:08;7.8;99.9
43414;DHT22;29013;49.676;8.606;2023-02-01T10:52:38;7.9;99.9
43414;DHT22;29013;49.676;8.606;2023-02-01T10:58:27;7.9;99.9
43414;DHT22;29013;49.676;8.606;2023-02-01T11:03:53;8.1;99.9
43414;DHT22;29013;49.676;8.606;2023-02-01T11:09:21;8.1;99.9
43414;DHT22;29013;49.676;8.606;2023-02-01T11:14:44;8.1;99.9
43414;DHT22;29013;49.676;8.606;2023-02-01T11:20:08;8.1;99.9
43414;DHT22;29013;49.676;8.606;2023-02-01T11:25:36;8.0;99.9
43414;DHT22;29013;49.676;8.606;2023-02-01T11:30:55;8.1;99.9
43414;DHT22;29013;49.676;8.606;2023-02-01T11:36:20;8.2;99.9
43414;DHT22;29013;49.676;8.606;2023-02-01T11:41:56;8.2;99.9
43414;DHT22;29013;49.676;8.606;2023-02-01T11:47:24;8.3;99.9
43414;DHT22;29013;49.676;8.606;2023-02-01T11:52:51;8.3;99.9
43414;DHT22;29013;49.676;8.606;2023-02-01T11:58:22;8.4;99.9
43414;DHT22;29013;49.676;8.606;2023-02-01T12:03:57;8.5;99.9
43414;DHT22;29013;49.676;8.606;2023-02-01T12:09:28;8.5;99.9
43414;DHT22;29013;49.676;8.606;2023-02-01T12:14:56;8.5;99.9
43414;DHT22;29013;49.676;8.606;2023-02-01T12:20:31;8.5;99.9
43414;DHT22;29013;49.676;8.606;2023-02-01T12:25:56;8.6;99.9
43414;DHT22;29013;49.676;8.606;2023-02-01T12:31:28;8.5;99.9
43414;DHT22;29013;49.676;8.606;2023-02-01T12:36:53;8.5;99.9
43414;DHT22;29013;49.676;8.606;2023-02-01T12:42:13;8.3;99.9
43414;DHT22;29013;49.676;8.606;2023-02-01T12:47:37;8.3;99.9
43414;DHT22;29013;49.676;8.606;2023-02-01T12:53:02;8.3;99.9
43414;DHT22;29013;49.676;8.606;2023-02-01T12:58:26;8.5;99.9
43414;DHT22;29013;49.676;8.606;2023-02-01T13:03:55;8.6;99.9
43414;DHT22;29013;49.676;8.606;2023-02-01T13:09:19;8.9;99.9
43414;DHT22;29013;49.676;8.606;2023-02-01T13:14:42;9.0;99.9
43414;DHT22;29013;49.676;8.606;2023-02-01T13:20:05;9.0;99.9
43414;DHT22;29013;49.676;8.606;2023-02-01T13:25:53;8.9;99.9
43414;DHT22;29013;49.676;8.606;2023-02-01T13:37:29;9.0;99.9
43414;DHT22;29013;49.676;8.606;2023-02-01T13:42:52;8.7;99.9
43414;DHT22;29013;49.676;8.606;2023-02-01T13:49:04;8.6;99.9
43414;DHT22;29013;49.676;8.606;2023-02-01T13:54:42;8.9;99.9
43414;DHT22;29013;49.676;8.606;2023-02-01T14:00:25;8.8;99.9
43414;DHT22;29013;49.676;8.606;2023-02-01T14:12:05;8.8;99.9
43414;DHT22;29013;49.676;8.606;2023-02-01T14:17:35;8.7;99.9
43414;DHT22;29013;49.676;8.606;2023-02-01T14:23:02;8.7;99.9
43414;DHT22;29013;49.676;8.606;2023-02-01T14:28:52;8.5;99.9
43414;DHT22;29013;49.676;8.606;2023-02-01T14:34:14;8.7;99.9
43414;DHT22;29013;49.676;8.606;2023-02-01T14:39:59;8.5;99.9
43414;DHT22;29013;49.676;8.606;2023-02-01T14:45:48;8.7;99.9
43414;DHT22;29013;49.676;8.606;2023-02-01T14:51:10;8.7;99.5
43414;DHT22;29013;49.676;8.606;2023-02-01T14:56:30;8.5;99.9
43414;DHT22;29013;49.676;8.606;2023-02-01T15:01:55;8.5;99.9
43414;DHT22;29013;49.676;8.606;2023-02-01T15:07:14;8.5;99.8
43414;DHT22;29013;49.676;8.606;2023-02-01T15:12:35;8.6;99.9
43414;DHT22;29013;49.676;8.606;2023-02-01T15:18:00;8.8;99.4
43414;DHT22;29013;49.676;8.606;2023-02-01T15:23:19;8.9;99.2
43414;DHT22;29013;49.676;8.606;2023-02-01T15:28:39;9.0;99.5
43414;DHT22;29013;49.676;8.606;2023-02-01T15:34:05;9.0;99.4
43414;DHT22;29013;49.676;8.606;2023-02-01T15:39:30;9.1;99.0
43414;DHT22;29013;49.676;8.606;2023-02-01T15:44:53;9.2;98.8
43414;DHT22;29013;49.676;8.606;2023-02-01T15:50:17;9.1;99.0
43414;DHT22;29013;49.676;8.606;2023-02-01T15:55:38;9.0;98.8
43414;DHT22;29013;49.676;8.606;2023-02-01T16:01:00;8.9;99.1
43414;DHT22;29013;49.676;8.606;2023-02-01T16:06:32;8.7;99.5
43414;DHT22;29013;49.676;8.606;2023-02-01T16:11:59;8.6;99.5
43414;DHT22;29013;49.676;8.606;2023-02-01T16:17:20;8.6;99.9
43414;DHT22;29013;49.676;8.606;2023-02-01T16:22:44;8.4;99.9
43414;DHT22;29013;49.676;8.606;2023-02-01T16:28:10;8.3;99.9
43414;DHT22;29013;49.676;8.606;2023-02-01T16:33:36;8.2;99.9
43414;DHT22;29013;49.676;8.606;2023-02-01T16:38:57;8.3;99.9
43414;DHT22;29013;49.676;8.606;2023-02-01T16:44:20;8.3;99.9
43414;DHT22;29013;49.676;8.606;2023-02-01T16:49:45;8.4;99.9
43414;DHT22;29013;49.676;8.606;2023-02-01T16:55:12;8.4;99.9
43414;DHT22;29013;49.676;8.606;2023-02-01T17:00:32;8.4;99.9
43414;DHT22;29013;49.676;8.606;2023-02-01T17:05:54;8.5;99.9
43414;DHT22;29013;49.676;8.606;2023-02-01T17:11:16;8.4;99.9
43414;DHT22;29013;49.676;8.606;2023-02-01T17:16:41;8.5;99.9
43414;DHT22;29013;49.676;8.606;2023-02-01T17:22:03;8.5;99.9
43414;DHT22;29013;49.676;8.606;2023-02-01T17:27:26;8.4;99.9
43414;DHT22;29013;49.676;8.606;2023-02-01T17:32:51;8.3;99.9
43414;DHT22;29013;49.676;8.606;2023-02-01T17:38:14;8.3;99.9
43414;DHT22;29013;49.676;8.606;2023-02-01T17:43:39;8.2;99.9
43414;DHT22;29013;49.676;8.606;2023-02-01T17:49:04;8.2;99.9
43414;DHT22;29013;49.676;8.606;2023-02-01T17:54:28;8.2;99.9
43414;DHT22;29013;49.676;8.606;2023-02-01T17:59:52;8.2;99.9
43414;DHT22;29013;49.676;8.606;2023-02-01T18:05:19;8.2;99.9
43414;DHT22;29013;49.676;8.606;2023-02-01T18:10:41;7.9;99.9
43414;DHT22;29013;49.676;8.606;2023-02-01T18:16:00;7.7;99.9
43414;DHT22;29013;49.676;8.606;2023-02-01T18:21:19;7.8;99.9
43414;DHT22;29013;49.676;8.606;2023-02-01T18:27:06;7.9;99.9
43414;DHT22;29013;49.676;8.606;2023-02-01T18:32:29;8.1;99.9
43414;DHT22;29013;49.676;8.606;2023-02-01T18:37:52;8.2;99.9
43414;DHT22;29013;49.676;8.606;2023-02-01T18:43:43;8.1;99.9
43414;DHT22;29013;49.676;8.606;2023-02-01T18:49:06;8.1;99.9
43414;DHT22;29013;49.676;8.606;2023-02-01T18:54:27;8.1;99.9
43414;DHT22;29013;49.676;8.606;2023-02-01T18:59:52;8.1;99.9
43414;DHT22;29013;49.676;8.606;2023-02-01T19:05:17;8.1;99.9
43414;DHT22;29013;49.676;8.606;2023-02-01T19:10:41;8.0;99.9
43414;DHT22;29013;49.676;8.606;2023-02-01T19:16:06;8.0;99.9
43414;DHT22;29013;49.676;8.606;2023-02-01T19:21:29;8.1;99.9
43414;DHT22;29013;49.676;8.606;2023-02-01T19:26:50;8.1;99.9
43414;DHT22;29013;49.676;8.606;2023-02-01T19:32:14;8.2;99.9
43414;DHT22;29013;49.676;8.606;2023-02-01T19:37:39;8.2;99.9
43414;DHT22;29013;49.676;8.606;2023-02-01T19:43:02;8.2;99.9
43414;DHT22;29013;49.676;8.606;2023-02-01T19:48:26;8.2;99.9
43414;DHT22;29013;49.676;8.606;2023-02-01T19:53:46;8.3;99.9
43414;DHT22;29013;49.676;8.606;2023-02-01T19:59:10;8.2;99.9
43414;DHT22;29013;49.676;8.606;2023-02-01T20:04:32;8.1;99.9
43414;DHT22;29013;49.676;8.606;2023-02-01T20:09:54;8.1;99.9
43414;DHT22;29013;49.676;8.606;2023-02-01T20:15:34;8.1;99.9
43414;DHT22;29013;49.676;8.606;2023-02-01T20:20:59;8.3;99.9
43414;DHT22;29013;49.676;8.606;2023-02-01T20:26:21;8.3;99.9
43414;DHT22;29013;49.676;8.606;2023-02-01T20:31:43;8.3;99.9
43414;DHT22;29013;49.676;8.606;2023-02-01T20:37:10;8.3;99.9
43414;DHT22;29013;49.676;8.606;2023-02-01T20:42:35;8.4;99.9
43414;DHT22;29013;49.676;8.606;2023-02-01T20:47:56;8.4;99.9
43414;DHT22;29013;49.676;8.606;2023-02-01T20:53:20;8.4;99.9
43414;DHT22;29013;49.676;8.606;2023-02-01T20:58:40;8.3;99.9
43414;DHT22;29013;49.676;8.606;2023-02-01T21:04:22;8.0;99.9
43414;DHT22;29013;49.676;8.606;2023-02-01T21:09:43;7.9;99.9
43414;DHT22;29013;49.676;8.606;2023-02-01T21:15:02;7.9;99.9
43414;DHT22;29013;49.676;8.606;2023-02-01T21:20:26;8.0;99.9
43414;DHT22;29013;49.676;8.606;2023-02-01T21:25:50;8.1;99.9
43414;DHT22;29013;49.676;8.606;2023-02-01T21:31:15;8.1;99.9
43414;DHT22;29013;49.676;8.606;2023-02-01T21:36:40;8.2;99.9
43414;DHT22;29013;49.676;8.606;2023-02-01T21:41:58;8.3;99.9
43414;DHT22;29013;49.676;8.606;2023-02-01T21:47:22;8.3;99.9
43414;DHT22;29013;49.676;8.606;2023-02-01T21:52:47;8.2;99.9
43414;DHT22;29013;49.676;8.606;2023-02-01T21:58:53;8.0;99.9
43414;DHT22;29013;49.676;8.606;2023-02-01T22:04:14;8.2;99.9
43414;DHT22;29013;49.676;8.606;2023-02-01T22:09:38;8.2;99.9
43414;DHT22;29013;49.676;8.606;2023-02-01T22:15:04;8.2;99.9
43414;DHT22;29013;49.676;8.606;2023-02-01T22:20:28;8.3;99.9
43414;DHT22;29013;49.676;8.606;2023-02-01T22:25:51;8.4;99.9
43414;DHT22;29013;49.676;8.606;2023-02-01T22:31:12;8.5;99.9
43414;DHT22;29013;49.676;8.606;2023-02-01T22:36:58;8.4;99.9
43414;DHT22;29013;49.676;8.606;2023-02-01T22:42:45;8.6;99.9
43414;DHT22;29013;49.676;8.606;2023-02-01T22:48:07;8.7;99.9
43414;DHT22;29013;49.676;8.606;2023-02-01T22:53:51;8.5;99.9
43414;DHT22;29013;49.676;8.606;2023-02-01T22:59:15;8.5;99.9
43414;DHT22;29013;49.676;8.606;2023-02-01T23:04:37;8.3;99.9
43414;DHT22;29013;49.676;8.606;2023-02-01T23:10:03;8.4;99.9
43414;DHT22;29013;49.676;8.606;2023-02-01T23:15:27;8.5;99.9
43414;DHT22;29013;49.676;8.606;2023-02-01T23:20:52;8.5;99.9
43414;DHT22;29013;49.676;8.606;2023-02-01T23:26:16;8.6;99.9
43414;DHT22;29013;49.676;8.606;2023-02-01T23:31:40;8.7;99.9
43414;DHT22;29013;49.676;8.606;2023-02-01T23:37:05;8.7;99.9
43414;DHT22;29013;49.676;8.606;2023-02-01T23:42:30;8.7;99.9
43414;DHT22;29013;49.676;8.606;2023-02-01T23:47:53;8.7;99.9
43414;DHT22;29013;49.676;8.606;2023-02-01T23:53:18;8.7;99.9
43414;DHT22;29013;49.676;8.606;2023-02-01T23:58:43;8.6;99.9
